sensor_id;sensor_type;location;lat;lon;timestamp;temperature;humidity
4183;DHT22;2105;52.300;9.182;2024-03-25T00:01:32;5.60;99.90
4183;DHT22;2105;52.300;9.182;2024-03-25T00:03:59;5.60;99.90
4183;DHT22;2105;52.300;9.182;2024-03-25T00:06:25;5.60;99.90
4183;DHT22;2105;52.300;9.182;2024-03-25T00:08:53;5.60;99.90
4183;DHT22;2105;52.300;9.182;2024-03-25T00:11:19;5.60;99.90
4183;DHT22;2105;52.300;9.182;2024-03-25T00:13:45;5.60;99.90
4183;DHT22;2105;52.300;9.182;2024-03-25T00:16:11;5.60;99.90
4183;DHT22;2105;52.300;9.182;2024-03-25T00:18:38;5.60;99.90
4183;DHT22;2105;52.300;9.182;2024-03-25T00:21:04;5.60;99.90
4183;DHT22;2105;52.300;9.182;2024-03-25T00:23:42;5.70;99.90
4183;DHT22;2105;52.300;9.182;2024-03-25T00:26:09;5.60;99.90
4183;DHT22;2105;52.300;9.182;2024-03-25T00:28:36;5.70;99.90
4183;DHT22;2105;52.300;9.182;2024-03-25T00:31:02;5.70;99.90
4183;DHT22;2105;52.300;9.182;2024-03-25T00:33:29;5.70;99.90
4183;DHT22;2105;52.300;9.182;2024-03-25T00:35:55;5.60;99.90
4183;DHT22;2105;52.300;9.182;2024-03-25T00:38:21;5.70;99.90
4183;DHT22;2105;52.300;9.182;2024-03-25T00:40:47;5.70;99.90
4183;DHT22;2105;52.300;9.182;2024-03-25T00:43:15;5.60;99.90
4183;DHT22;2105;52.300;9.182;2024-03-25T00:45:41;5.60;99.90
4183;DHT22;2105;52.300;9.182;2024-03-25T00:48:08;5.60;99.90
4183;DHT22;2105;52.300;9.182;2024-03-25T00:50:33;5.60;99.90
4183;DHT22;2105;52.300;9.182;2024-03-25T00:53:00;5.60;99.90
4183;DHT22;2105;52.300;9.182;2024-03-25T00:55:26;5.60;99.90
4183;DHT22;2105;52.300;9.182;2024-03-25T00:57:52;5.60;99.90
4183;DHT22;2105;52.300;9.182;2024-03-25T01:00:19;5.60;99.90
4183;DHT22;2105;52.300;9.182;2024-03-25T01:02:46;5.60;99.90
4183;DHT22;2105;52.300;9.182;2024-03-25T01:05:12;5.60;99.90
4183;DHT22;2105;52.300;9.182;2024-03-25T01:07:39;5.60;99.90
4183;DHT22;2105;52.300;9.182;2024-03-25T01:10:05;5.60;99.90
4183;DHT22;2105;52.300;9.182;2024-03-25T01:12:32;5.60;99.90
4183;DHT22;2105;52.300;9.182;2024-03-25T01:14:58;5.60;99.90
4183;DHT22;2105;52.300;9.182;2024-03-25T01:17:26;5.60;99.90
4183;DHT22;2105;52.300;9.182;2024-03-25T01:19:52;5.60;99.90
4183;DHT22;2105;52.300;9.182;2024-03-25T01:22:18;5.60;99.90
4183;DHT22;2105;52.300;9.182;2024-03-25T01:24:44;5.60;99.90
4183;DHT22;2105;52.300;9.182;2024-03-25T01:27:11;5.60;99.90
4183;DHT22;2105;52.300;9.182;2024-03-25T01:29:36;5.60;99.90
4183;DHT22;2105;52.300;9.182;2024-03-25T01:32:04;5.50;99.90
4183;DHT22;2105;52.300;9.182;2024-03-25T01:34:32;5.50;99.90
4183;DHT22;2105;52.300;9.182;2024-03-25T01:36:58;5.50;99.90
4183;DHT22;2105;52.300;9.182;2024-03-25T01:39:24;5.50;99.90
4183;DHT22;2105;52.300;9.182;2024-03-25T01:41:51;5.50;99.90
4183;DHT22;2105;52.300;9.182;2024-03-25T01:44:16;5.40;99.90
4183;DHT22;2105;52.300;9.182;2024-03-25T01:46:43;5.40;99.90
4183;DHT22;2105;52.300;9.182;2024-03-25T01:49:09;5.40;99.90
4183;DHT22;2105;52.300;9.182;2024-03-25T01:51:39;5.40;99.90
4183;DHT22;2105;52.300;9.182;2024-03-25T01:54:06;5.40;99.90
4183;DHT22;2105;52.300;9.182;2024-03-25T01:56:35;5.40;99.90
4183;DHT22;2105;52.300;9.182;2024-03-25T01:59:02;5.40;99.90
4183;DHT22;2105;52.300;9.182;2024-03-25T02:01:30;5.30;99.90
4183;DHT22;2105;52.300;9.182;2024-03-25T02:03:56;5.30;99.90
4183;DHT22;2105;52.300;9.182;2024-03-25T02:06:27;5.30;99.90
4183;DHT22;2105;52.300;9.182;2024-03-25T02:08:55;5.30;99.90
4183;DHT22;2105;52.300;9.182;2024-03-25T02:11:23;5.20;99.90
4183;DHT22;2105;52.300;9.182;2024-03-25T02:13:49;5.20;99.90
4183;DHT22;2105;52.300;9.182;2024-03-25T02:16:16;5.20;99.90
4183;DHT22;2105;52.300;9.182;2024-03-25T02:18:42;5.20;99.90
4183;DHT22;2105;52.300;9.182;2024-03-25T02:21:09;5.20;99.90
4183;DHT22;2105;52.300;9.182;2024-03-25T02:23:35;5.20;99.90
4183;DHT22;2105;52.300;9.182;2024-03-25T02:26:03;5.20;99.90
4183;DHT22;2105;52.300;9.182;2024-03-25T02:28:29;5.20;99.90
4183;DHT22;2105;52.300;9.182;2024-03-25T02:30:56;5.20;99.90
4183;DHT22;2105;52.300;9.182;2024-03-25T02:33:21;5.30;99.90
4183;DHT22;2105;52.300;9.182;2024-03-25T02:35:48;5.30;99.90
4183;DHT22;2105;52.300;9.182;2024-03-25T02:38:14;5.30;99.90
4183;DHT22;2105;52.300;9.182;2024-03-25T02:40:43;5.30;99.90
4183;DHT22;2105;52.300;9.182;2024-03-25T02:43:11;5.30;99.90
4183;DHT22;2105;52.300;9.182;2024-03-25T02:45:38;5.30;99.90
4183;DHT22;2105;52.300;9.182;2024-03-25T02:48:05;5.30;99.90
4183;DHT22;2105;52.300;9.182;2024-03-25T02:50:31;5.30;99.90
4183;DHT22;2105;52.300;9.182;2024-03-25T02:52:57;5.30;99.90
4183;DHT22;2105;52.300;9.182;2024-03-25T02:55:24;5.30;99.90
4183;DHT22;2105;52.300;9.182;2024-03-25T02:57:49;5.20;99.90
4183;DHT22;2105;52.300;9.182;2024-03-25T03:00:18;5.20;99.90
4183;DHT22;2105;52.300;9.182;2024-03-25T03:02:43;5.20;99.90
4183;DHT22;2105;52.300;9.182;2024-03-25T03:05:10;5.20;99.90
4183;DHT22;2105;52.300;9.182;2024-03-25T03:07:36;5.30;99.90
4183;DHT22;2105;52.300;9.182;2024-03-25T03:10:02;5.30;99.90
4183;DHT22;2105;52.300;9.182;2024-03-25T03:12:28;5.30;99.90
4183;DHT22;2105;52.300;9.182;2024-03-25T03:14:55;5.30;99.90
4183;DHT22;2105;52.300;9.182;2024-03-25T03:17:22;5.30;99.90
4183;DHT22;2105;52.300;9.182;2024-03-25T03:19:49;5.30;99.90
4183;DHT22;2105;52.300;9.182;2024-03-25T03:22:15;5.30;99.90
4183;DHT22;2105;52.300;9.182;2024-03-25T03:24:41;5.30;99.90
4183;DHT22;2105;52.300;9.182;2024-03-25T03:27:07;5.30;99.90
4183;DHT22;2105;52.300;9.182;2024-03-25T03:29:34;5.30;99.90
4183;DHT22;2105;52.300;9.182;2024-03-25T03:32:00;5.30;99.90
4183;DHT22;2105;52.300;9.182;2024-03-25T03:34:28;5.30;99.90
4183;DHT22;2105;52.300;9.182;2024-03-25T03:36:53;5.30;99.90
4183;DHT22;2105;52.300;9.182;2024-03-25T03:39:20;5.30;99.90
4183;DHT22;2105;52.300;9.182;2024-03-25T03:41:46;5.30;99.90
4183;DHT22;2105;52.300;9.182;2024-03-25T03:44:12;5.30;99.90
4183;DHT22;2105;52.300;9.182;2024-03-25T03:46:40;5.30;99.90
4183;DHT22;2105;52.300;9.182;2024-03-25T03:49:06;5.30;99.90
4183;DHT22;2105;52.300;9.182;2024-03-25T03:51:33;5.30;99.90
4183;DHT22;2105;52.300;9.182;2024-03-25T03:54:00;5.30;99.90
4183;DHT22;2105;52.300;9.182;2024-03-25T03:56:26;5.30;99.90
4183;DHT22;2105;52.300;9.182;2024-03-25T03:58:52;5.30;99.90
4183;DHT22;2105;52.300;9.182;2024-03-25T04:01:18;5.40;99.90
4183;DHT22;2105;52.300;9.182;2024-03-25T04:03:45;5.30;99.90
4183;DHT22;2105;52.300;9.182;2024-03-25T04:06:12;5.40;99.90
4183;DHT22;2105;52.300;9.182;2024-03-25T04:08:40;5.40;99.90
4183;DHT22;2105;52.300;9.182;2024-03-25T04:11:07;5.30;99.90
4183;DHT22;2105;52.300;9.182;2024-03-25T04:13:33;5.40;99.90
4183;DHT22;2105;52.300;9.182;2024-03-25T04:16:01;5.40;99.90
4183;DHT22;2105;52.300;9.182;2024-03-25T04:18:28;5.40;99.90
4183;DHT22;2105;52.300;9.182;2024-03-25T04:20:54;5.40;99.90
4183;DHT22;2105;52.300;9.182;2024-03-25T04:23:20;5.40;99.90
4183;DHT22;2105;52.300;9.182;2024-03-25T04:25:48;5.40;99.90
4183;DHT22;2105;52.300;9.182;2024-03-25T04:28:14;5.30;99.90
4183;DHT22;2105;52.300;9.182;2024-03-25T04:30:40;5.30;99.90
4183;DHT22;2105;52.300;9.182;2024-03-25T04:33:06;5.30;99.90
4183;DHT22;2105;52.300;9.182;2024-03-25T04:35:33;5.30;99.90
4183;DHT22;2105;52.300;9.182;2024-03-25T04:37:59;5.40;99.90
4183;DHT22;2105;52.300;9.182;2024-03-25T04:40:25;5.40;99.90
4183;DHT22;2105;52.300;9.182;2024-03-25T04:42:52;5.40;99.90
4183;DHT22;2105;52.300;9.182;2024-03-25T04:45:18;5.40;99.90
4183;DHT22;2105;52.300;9.182;2024-03-25T04:47:43;5.40;99.90
4183;DHT22;2105;52.300;9.182;2024-03-25T04:50:09;5.40;99.90
4183;DHT22;2105;52.300;9.182;2024-03-25T04:52:35;5.40;99.90
4183;DHT22;2105;52.300;9.182;2024-03-25T04:55:01;5.40;99.90
4183;DHT22;2105;52.300;9.182;2024-03-25T04:57:27;5.40;99.90
4183;DHT22;2105;52.300;9.182;2024-03-25T04:59:54;5.40;99.90
4183;DHT22;2105;52.300;9.182;2024-03-25T05:02:20;5.40;99.90
4183;DHT22;2105;52.300;9.182;2024-03-25T05:04:46;5.40;99.90
4183;DHT22;2105;52.300;9.182;2024-03-25T05:07:11;5.40;99.90
4183;DHT22;2105;52.300;9.182;2024-03-25T05:09:37;5.40;99.90
4183;DHT22;2105;52.300;9.182;2024-03-25T05:12:03;5.40;99.90
4183;DHT22;2105;52.300;9.182;2024-03-25T05:14:29;5.40;99.90
4183;DHT22;2105;52.300;9.182;2024-03-25T05:16:56;5.40;99.90
4183;DHT22;2105;52.300;9.182;2024-03-25T05:19:22;5.40;99.90
4183;DHT22;2105;52.300;9.182;2024-03-25T05:21:48;5.40;99.90
4183;DHT22;2105;52.300;9.182;2024-03-25T05:24:14;5.40;99.90
4183;DHT22;2105;52.300;9.182;2024-03-25T05:26:40;5.40;99.90
4183;DHT22;2105;52.300;9.182;2024-03-25T05:29:05;5.40;99.90
4183;DHT22;2105;52.300;9.182;2024-03-25T05:31:32;5.40;99.90
4183;DHT22;2105;52.300;9.182;2024-03-25T05:33:59;5.40;99.90
4183;DHT22;2105;52.300;9.182;2024-03-25T05:36:25;5.40;99.90
4183;DHT22;2105;52.300;9.182;2024-03-25T05:38:50;5.40;99.90
4183;DHT22;2105;52.300;9.182;2024-03-25T05:41:16;5.40;99.90
4183;DHT22;2105;52.300;9.182;2024-03-25T05:43:42;5.40;99.90
4183;DHT22;2105;52.300;9.182;2024-03-25T05:46:08;5.40;99.90
4183;DHT22;2105;52.300;9.182;2024-03-25T05:48:33;5.40;99.90
4183;DHT22;2105;52.300;9.182;2024-03-25T05:51:02;5.40;99.90
4183;DHT22;2105;52.300;9.182;2024-03-25T05:53:28;5.40;99.90
4183;DHT22;2105;52.300;9.182;2024-03-25T05:55:54;5.40;99.90
4183;DHT22;2105;52.300;9.182;2024-03-25T05:58:20;5.50;99.90
4183;DHT22;2105;52.300;9.182;2024-03-25T06:00:49;5.50;99.90
4183;DHT22;2105;52.300;9.182;2024-03-25T06:03:15;5.50;99.90
4183;DHT22;2105;52.300;9.182;2024-03-25T06:05:41;5.50;99.90
4183;DHT22;2105;52.300;9.182;2024-03-25T06:08:09;5.50;99.90
4183;DHT22;2105;52.300;9.182;2024-03-25T06:10:36;5.50;99.90
4183;DHT22;2105;52.300;9.182;2024-03-25T06:13:02;5.50;99.90
4183;DHT22;2105;52.300;9.182;2024-03-25T06:15:27;5.50;99.90
4183;DHT22;2105;52.300;9.182;2024-03-25T06:17:53;5.50;99.90
4183;DHT22;2105;52.300;9.182;2024-03-25T06:20:19;5.50;99.90
4183;DHT22;2105;52.300;9.182;2024-03-25T06:22:45;5.50;99.90
4183;DHT22;2105;52.300;9.182;2024-03-25T06:25:12;5.50;99.90
4183;DHT22;2105;52.300;9.182;2024-03-25T06:27:38;5.50;99.90
4183;DHT22;2105;52.300;9.182;2024-03-25T06:30:04;5.50;99.90
4183;DHT22;2105;52.300;9.182;2024-03-25T06:32:45;5.50;99.90
4183;DHT22;2105;52.300;9.182;2024-03-25T06:35:29;5.50;99.90
4183;DHT22;2105;52.300;9.182;2024-03-25T06:37:55;5.60;99.90
4183;DHT22;2105;52.300;9.182;2024-03-25T06:40:22;5.60;99.90
4183;DHT22;2105;52.300;9.182;2024-03-25T06:42:48;5.60;99.90
4183;DHT22;2105;52.300;9.182;2024-03-25T06:45:14;5.60;99.90
4183;DHT22;2105;52.300;9.182;2024-03-25T06:47:40;5.70;99.90
4183;DHT22;2105;52.300;9.182;2024-03-25T06:50:06;5.70;99.90
4183;DHT22;2105;52.300;9.182;2024-03-25T06:52:32;5.70;99.90
4183;DHT22;2105;52.300;9.182;2024-03-25T06:54:58;5.70;99.90
4183;DHT22;2105;52.300;9.182;2024-03-25T06:57:25;5.70;99.90
4183;DHT22;2105;52.300;9.182;2024-03-25T06:59:50;5.80;99.90
4183;DHT22;2105;52.300;9.182;2024-03-25T07:02:16;5.80;99.90
4183;DHT22;2105;52.300;9.182;2024-03-25T07:04:42;5.80;99.90
4183;DHT22;2105;52.300;9.182;2024-03-25T07:07:08;5.90;99.90
4183;DHT22;2105;52.300;9.182;2024-03-25T07:09:33;5.90;99.90
4183;DHT22;2105;52.300;9.182;2024-03-25T07:11:59;5.90;99.90
4183;DHT22;2105;52.300;9.182;2024-03-25T07:14:26;6.00;99.90
4183;DHT22;2105;52.300;9.182;2024-03-25T07:16:52;6.00;99.90
4183;DHT22;2105;52.300;9.182;2024-03-25T07:19:18;6.00;99.90
4183;DHT22;2105;52.300;9.182;2024-03-25T07:21:44;6.10;99.90
4183;DHT22;2105;52.300;9.182;2024-03-25T07:24:09;6.10;99.90
4183;DHT22;2105;52.300;9.182;2024-03-25T07:26:35;6.10;99.90
4183;DHT22;2105;52.300;9.182;2024-03-25T07:29:01;6.10;99.90
4183;DHT22;2105;52.300;9.182;2024-03-25T07:31:28;6.20;99.90
4183;DHT22;2105;52.300;9.182;2024-03-25T07:33:54;6.20;99.90
4183;DHT22;2105;52.300;9.182;2024-03-25T07:36:20;6.30;99.90
4183;DHT22;2105;52.300;9.182;2024-03-25T07:38:45;6.30;99.90
4183;DHT22;2105;52.300;9.182;2024-03-25T07:41:11;6.30;99.90
4183;DHT22;2105;52.300;9.182;2024-03-25T07:43:37;6.30;98.70
4183;DHT22;2105;52.300;9.182;2024-03-25T07:46:03;6.30;1.00
4183;DHT22;2105;52.300;9.182;2024-03-25T07:48:30;6.30;1.00
4183;DHT22;2105;52.300;9.182;2024-03-25T07:50:56;6.40;1.00
4183;DHT22;2105;52.300;9.182;2024-03-25T07:53:22;6.40;1.00
4183;DHT22;2105;52.300;9.182;2024-03-25T07:55:47;6.50;1.00
4183;DHT22;2105;52.300;9.182;2024-03-25T07:58:13;6.60;1.00
4183;DHT22;2105;52.300;9.182;2024-03-25T08:00:39;6.80;1.00
4183;DHT22;2105;52.300;9.182;2024-03-25T08:03:05;6.90;1.00
4183;DHT22;2105;52.300;9.182;2024-03-25T08:05:32;7.10;1.00
4183;DHT22;2105;52.300;9.182;2024-03-25T08:07:57;7.20;1.00
4183;DHT22;2105;52.300;9.182;2024-03-25T08:10:23;7.20;1.00
4183;DHT22;2105;52.300;9.182;2024-03-25T08:12:49;7.30;99.90
4183;DHT22;2105;52.300;9.182;2024-03-25T08:15:15;7.30;99.90
4183;DHT22;2105;52.300;9.182;2024-03-25T08:17:41;7.20;99.90
4183;DHT22;2105;52.300;9.182;2024-03-25T08:20:07;7.10;1.00
4183;DHT22;2105;52.300;9.182;2024-03-25T08:22:35;7.10;1.00
4183;DHT22;2105;52.300;9.182;2024-03-25T08:25:00;7.10;1.00
4183;DHT22;2105;52.300;9.182;2024-03-25T08:27:26;7.20;1.00
4183;DHT22;2105;52.300;9.182;2024-03-25T08:29:52;7.20;1.00
4183;DHT22;2105;52.300;9.182;2024-03-25T08:32:18;7.20;1.00
4183;DHT22;2105;52.300;9.182;2024-03-25T08:34:44;7.20;99.90
4183;DHT22;2105;52.300;9.182;2024-03-25T08:37:09;7.30;99.90
4183;DHT22;2105;52.300;9.182;2024-03-25T08:39:37;7.40;99.90
4183;DHT22;2105;52.300;9.182;2024-03-25T08:42:03;7.40;99.90
4183;DHT22;2105;52.300;9.182;2024-03-25T08:44:28;7.50;1.00
4183;DHT22;2105;52.300;9.182;2024-03-25T08:46:54;7.70;99.90
4183;DHT22;2105;52.300;9.182;2024-03-25T08:49:20;7.70;1.00
4183;DHT22;2105;52.300;9.182;2024-03-25T08:51:46;7.80;1.00
4183;DHT22;2105;52.300;9.182;2024-03-25T08:54:12;7.90;1.00
4183;DHT22;2105;52.300;9.182;2024-03-25T08:56:39;7.90;99.90
4183;DHT22;2105;52.300;9.182;2024-03-25T08:59:05;7.90;99.90
4183;DHT22;2105;52.300;9.182;2024-03-25T09:01:31;8.00;99.90
4183;DHT22;2105;52.300;9.182;2024-03-25T09:03:56;8.10;99.90
4183;DHT22;2105;52.300;9.182;2024-03-25T09:06:22;8.30;27.10
4183;DHT22;2105;52.300;9.182;2024-03-25T09:08:48;8.20;1.00
4183;DHT22;2105;52.300;9.182;2024-03-25T09:11:32;8.30;1.00
4183;DHT22;2105;52.300;9.182;2024-03-25T09:13:59;8.50;1.00
4183;DHT22;2105;52.300;9.182;2024-03-25T09:16:25;8.50;99.90
4183;DHT22;2105;52.300;9.182;2024-03-25T09:18:51;8.60;99.90
4183;DHT22;2105;52.300;9.182;2024-03-25T09:21:17;8.50;99.90
4183;DHT22;2105;52.300;9.182;2024-03-25T09:23:42;8.50;99.90
4183;DHT22;2105;52.300;9.182;2024-03-25T09:26:08;8.50;99.90
4183;DHT22;2105;52.300;9.182;2024-03-25T09:28:34;8.70;99.90
4183;DHT22;2105;52.300;9.182;2024-03-25T09:31:01;8.80;99.90
4183;DHT22;2105;52.300;9.182;2024-03-25T09:33:27;8.80;99.90
4183;DHT22;2105;52.300;9.182;2024-03-25T09:35:53;8.80;99.90
4183;DHT22;2105;52.300;9.182;2024-03-25T09:38:19;8.70;99.90
4183;DHT22;2105;52.300;9.182;2024-03-25T09:40:45;8.70;99.90
4183;DHT22;2105;52.300;9.182;2024-03-25T09:43:16;8.60;99.90
4183;DHT22;2105;52.300;9.182;2024-03-25T09:45:47;8.50;99.90
4183;DHT22;2105;52.300;9.182;2024-03-25T09:48:16;8.30;99.90
4183;DHT22;2105;52.300;9.182;2024-03-25T09:50:42;8.30;99.90
4183;DHT22;2105;52.300;9.182;2024-03-25T09:53:09;8.20;99.90
4183;DHT22;2105;52.300;9.182;2024-03-25T09:55:35;8.20;99.90
4183;DHT22;2105;52.300;9.182;2024-03-25T09:58:01;8.50;99.90
4183;DHT22;2105;52.300;9.182;2024-03-25T10:00:27;8.70;99.90
4183;DHT22;2105;52.300;9.182;2024-03-25T10:02:54;8.70;99.90
4183;DHT22;2105;52.300;9.182;2024-03-25T10:05:21;8.60;99.90
4183;DHT22;2105;52.300;9.182;2024-03-25T10:07:47;8.60;99.90
4183;DHT22;2105;52.300;9.182;2024-03-25T10:10:13;8.70;99.90
4183;DHT22;2105;52.300;9.182;2024-03-25T10:12:44;8.80;99.90
4183;DHT22;2105;52.300;9.182;2024-03-25T10:15:15;8.70;99.90
4183;DHT22;2105;52.300;9.182;2024-03-25T10:17:41;8.50;1.00
4183;DHT22;2105;52.300;9.182;2024-03-25T10:20:08;8.20;99.90
4183;DHT22;2105;52.300;9.182;2024-03-25T10:22:42;8.10;99.90
4183;DHT22;2105;52.300;9.182;2024-03-25T10:25:18;8.00;1.00
4183;DHT22;2105;52.300;9.182;2024-03-25T10:27:53;8.10;1.00
4183;DHT22;2105;52.300;9.182;2024-03-25T10:30:19;8.70;99.90
4183;DHT22;2105;52.300;9.182;2024-03-25T10:32:45;9.20;1.00
4183;DHT22;2105;52.300;9.182;2024-03-25T10:35:11;9.70;1.00
4183;DHT22;2105;52.300;9.182;2024-03-25T10:37:39;10.00;1.00
4183;DHT22;2105;52.300;9.182;2024-03-25T10:40:08;10.40;1.00
4183;DHT22;2105;52.300;9.182;2024-03-25T10:42:38;10.40;1.00
4183;DHT22;2105;52.300;9.182;2024-03-25T10:45:05;10.40;1.00
4183;DHT22;2105;52.300;9.182;2024-03-25T10:47:34;10.30;1.00
4183;DHT22;2105;52.300;9.182;2024-03-25T10:50:06;10.40;1.00
4183;DHT22;2105;52.300;9.182;2024-03-25T10:52:33;10.70;1.00
4183;DHT22;2105;52.300;9.182;2024-03-25T10:55:00;10.90;1.00
4183;DHT22;2105;52.300;9.182;2024-03-25T10:57:28;10.90;1.00
4183;DHT22;2105;52.300;9.182;2024-03-25T10:59:56;10.80;1.00
4183;DHT22;2105;52.300;9.182;2024-03-25T11:02:22;10.60;1.00
4183;DHT22;2105;52.300;9.182;2024-03-25T11:04:49;10.50;1.00
4183;DHT22;2105;52.300;9.182;2024-03-25T11:07:15;10.40;1.00
4183;DHT22;2105;52.300;9.182;2024-03-25T11:09:42;10.00;1.00
4183;DHT22;2105;52.300;9.182;2024-03-25T11:12:10;9.80;1.00
4183;DHT22;2105;52.300;9.182;2024-03-25T11:14:37;9.80;1.00
4183;DHT22;2105;52.300;9.182;2024-03-25T11:17:14;9.60;1.00
4183;DHT22;2105;52.300;9.182;2024-03-25T11:19:40;9.70;1.00
4183;DHT22;2105;52.300;9.182;2024-03-25T11:22:08;9.70;1.00
4183;DHT22;2105;52.300;9.182;2024-03-25T11:24:34;9.70;1.00
4183;DHT22;2105;52.300;9.182;2024-03-25T11:27:01;9.70;1.00
4183;DHT22;2105;52.300;9.182;2024-03-25T11:29:27;9.90;1.00
4183;DHT22;2105;52.300;9.182;2024-03-25T11:31:55;10.00;1.00
4183;DHT22;2105;52.300;9.182;2024-03-25T11:34:23;10.10;1.00
4183;DHT22;2105;52.300;9.182;2024-03-25T11:36:48;10.30;1.00
4183;DHT22;2105;52.300;9.182;2024-03-25T11:39:14;10.70;1.00
4183;DHT22;2105;52.300;9.182;2024-03-25T11:41:42;11.10;1.00
4183;DHT22;2105;52.300;9.182;2024-03-25T11:44:08;11.00;1.00
4183;DHT22;2105;52.300;9.182;2024-03-25T11:46:36;10.80;1.00
4183;DHT22;2105;52.300;9.182;2024-03-25T11:49:05;11.20;1.00
4183;DHT22;2105;52.300;9.182;2024-03-25T11:51:31;11.60;1.00
4183;DHT22;2105;52.300;9.182;2024-03-25T11:53:56;11.70;1.00
4183;DHT22;2105;52.300;9.182;2024-03-25T11:56:22;11.80;1.00
4183;DHT22;2105;52.300;9.182;2024-03-25T11:58:48;11.60;1.00
4183;DHT22;2105;52.300;9.182;2024-03-25T12:01:14;11.30;1.00
4183;DHT22;2105;52.300;9.182;2024-03-25T12:03:40;11.00;1.00
4183;DHT22;2105;52.300;9.182;2024-03-25T12:06:07;10.80;1.00
4183;DHT22;2105;52.300;9.182;2024-03-25T12:08:33;11.00;1.00
4183;DHT22;2105;52.300;9.182;2024-03-25T12:11:00;11.10;1.00
4183;DHT22;2105;52.300;9.182;2024-03-25T12:13:43;10.90;1.00
4183;DHT22;2105;52.300;9.182;2024-03-25T12:16:09;10.80;1.00
4183;DHT22;2105;52.300;9.182;2024-03-25T12:18:36;10.80;1.00
4183;DHT22;2105;52.300;9.182;2024-03-25T12:21:04;10.90;1.00
4183;DHT22;2105;52.300;9.182;2024-03-25T12:23:32;11.00;1.00
4183;DHT22;2105;52.300;9.182;2024-03-25T12:25:59;10.80;1.00
4183;DHT22;2105;52.300;9.182;2024-03-25T12:28:25;10.80;1.00
4183;DHT22;2105;52.300;9.182;2024-03-25T12:30:52;10.80;1.00
4183;DHT22;2105;52.300;9.182;2024-03-25T12:33:18;10.70;1.00
4183;DHT22;2105;52.300;9.182;2024-03-25T12:35:48;10.50;1.00
4183;DHT22;2105;52.300;9.182;2024-03-25T12:38:24;10.40;1.00
4183;DHT22;2105;52.300;9.182;2024-03-25T12:40:52;10.20;1.00
4183;DHT22;2105;52.300;9.182;2024-03-25T12:43:18;10.10;1.00
4183;DHT22;2105;52.300;9.182;2024-03-25T12:45:44;10.50;1.00
4183;DHT22;2105;52.300;9.182;2024-03-25T12:48:10;11.20;1.00
4183;DHT22;2105;52.300;9.182;2024-03-25T12:50:36;11.60;1.00
4183;DHT22;2105;52.300;9.182;2024-03-25T12:53:02;11.70;1.00
4183;DHT22;2105;52.300;9.182;2024-03-25T12:55:28;11.50;1.00
4183;DHT22;2105;52.300;9.182;2024-03-25T12:57:55;11.20;1.00
4183;DHT22;2105;52.300;9.182;2024-03-25T13:00:21;11.20;1.00
4183;DHT22;2105;52.300;9.182;2024-03-25T13:02:47;11.10;1.00
4183;DHT22;2105;52.300;9.182;2024-03-25T13:05:13;11.30;1.00
4183;DHT22;2105;52.300;9.182;2024-03-25T13:07:39;11.60;1.00
4183;DHT22;2105;52.300;9.182;2024-03-25T13:10:06;11.70;1.00
4183;DHT22;2105;52.300;9.182;2024-03-25T13:12:32;11.50;1.00
4183;DHT22;2105;52.300;9.182;2024-03-25T13:14:59;11.50;1.00
4183;DHT22;2105;52.300;9.182;2024-03-25T13:17:25;11.40;1.00
4183;DHT22;2105;52.300;9.182;2024-03-25T13:19:51;11.30;1.00
4183;DHT22;2105;52.300;9.182;2024-03-25T13:22:17;11.30;1.00
4183;DHT22;2105;52.300;9.182;2024-03-25T13:24:42;11.20;1.00
4183;DHT22;2105;52.300;9.182;2024-03-25T13:27:08;11.10;1.00
4183;DHT22;2105;52.300;9.182;2024-03-25T13:29:34;10.90;1.00
4183;DHT22;2105;52.300;9.182;2024-03-25T13:32:01;10.80;1.00
4183;DHT22;2105;52.300;9.182;2024-03-25T13:34:27;10.80;1.00
4183;DHT22;2105;52.300;9.182;2024-03-25T13:36:53;10.90;1.00
4183;DHT22;2105;52.300;9.182;2024-03-25T13:39:19;11.20;1.00
4183;DHT22;2105;52.300;9.182;2024-03-25T13:41:45;11.40;1.00
4183;DHT22;2105;52.300;9.182;2024-03-25T13:44:10;11.60;1.00
4183;DHT22;2105;52.300;9.182;2024-03-25T13:46:36;11.60;1.00
4183;DHT22;2105;52.300;9.182;2024-03-25T13:49:03;11.30;1.00
4183;DHT22;2105;52.300;9.182;2024-03-25T13:51:29;11.10;1.00
4183;DHT22;2105;52.300;9.182;2024-03-25T13:53:55;11.10;1.00
4183;DHT22;2105;52.300;9.182;2024-03-25T13:56:21;11.20;1.00
4183;DHT22;2105;52.300;9.182;2024-03-25T13:58:46;11.30;1.00
4183;DHT22;2105;52.300;9.182;2024-03-25T14:01:12;11.30;1.00
4183;DHT22;2105;52.300;9.182;2024-03-25T14:03:38;11.30;1.00
4183;DHT22;2105;52.300;9.182;2024-03-25T14:06:05;11.40;1.00
4183;DHT22;2105;52.300;9.182;2024-03-25T14:08:31;11.70;1.00
4183;DHT22;2105;52.300;9.182;2024-03-25T14:10:57;12.00;1.00
4183;DHT22;2105;52.300;9.182;2024-03-25T14:13:24;12.00;1.00
4183;DHT22;2105;52.300;9.182;2024-03-25T14:15:50;11.70;1.00
4183;DHT22;2105;52.300;9.182;2024-03-25T14:18:16;11.40;1.00
4183;DHT22;2105;52.300;9.182;2024-03-25T14:20:41;11.00;1.00
4183;DHT22;2105;52.300;9.182;2024-03-25T14:23:08;11.10;1.00
4183;DHT22;2105;52.300;9.182;2024-03-25T14:25:34;11.20;1.00
4183;DHT22;2105;52.300;9.182;2024-03-25T14:28:00;11.00;1.00
4183;DHT22;2105;52.300;9.182;2024-03-25T14:30:26;11.40;1.00
4183;DHT22;2105;52.300;9.182;2024-03-25T14:32:52;11.60;1.00
4183;DHT22;2105;52.300;9.182;2024-03-25T14:35:17;11.40;1.00
4183;DHT22;2105;52.300;9.182;2024-03-25T14:37:43;11.10;1.00
4183;DHT22;2105;52.300;9.182;2024-03-25T14:40:11;11.40;1.00
4183;DHT22;2105;52.300;9.182;2024-03-25T14:42:37;11.60;1.00
4183;DHT22;2105;52.300;9.182;2024-03-25T14:45:04;11.40;1.00
4183;DHT22;2105;52.300;9.182;2024-03-25T14:47:30;11.30;1.00
4183;DHT22;2105;52.300;9.182;2024-03-25T14:49:56;11.60;1.00
4183;DHT22;2105;52.300;9.182;2024-03-25T14:52:22;11.80;1.00
4183;DHT22;2105;52.300;9.182;2024-03-25T14:54:48;11.90;1.00
4183;DHT22;2105;52.300;9.182;2024-03-25T14:57:15;12.00;1.00
4183;DHT22;2105;52.300;9.182;2024-03-25T14:59:41;12.20;1.00
4183;DHT22;2105;52.300;9.182;2024-03-25T15:02:06;12.20;1.00
4183;DHT22;2105;52.300;9.182;2024-03-25T15:04:32;12.20;1.00
4183;DHT22;2105;52.300;9.182;2024-03-25T15:06:58;12.20;1.00
4183;DHT22;2105;52.300;9.182;2024-03-25T15:09:24;12.30;1.00
4183;DHT22;2105;52.300;9.182;2024-03-25T15:11:50;12.30;1.00
4183;DHT22;2105;52.300;9.182;2024-03-25T15:14:17;12.00;1.00
4183;DHT22;2105;52.300;9.182;2024-03-25T15:16:43;12.00;1.00
4183;DHT22;2105;52.300;9.182;2024-03-25T15:19:09;12.00;1.00
4183;DHT22;2105;52.300;9.182;2024-03-25T15:21:35;12.00;1.00
4183;DHT22;2105;52.300;9.182;2024-03-25T15:24:01;12.00;1.00
4183;DHT22;2105;52.300;9.182;2024-03-25T15:26:27;12.00;1.00
4183;DHT22;2105;52.300;9.182;2024-03-25T15:28:53;12.00;1.00
4183;DHT22;2105;52.300;9.182;2024-03-25T15:31:20;11.90;1.00
4183;DHT22;2105;52.300;9.182;2024-03-25T15:33:46;11.90;1.00
4183;DHT22;2105;52.300;9.182;2024-03-25T15:36:11;11.90;1.00
4183;DHT22;2105;52.300;9.182;2024-03-25T15:38:37;11.80;1.00
4183;DHT22;2105;52.300;9.182;2024-03-25T15:41:03;11.70;1.00
4183;DHT22;2105;52.300;9.182;2024-03-25T15:43:29;11.50;1.00
4183;DHT22;2105;52.300;9.182;2024-03-25T15:45:55;11.30;1.00
4183;DHT22;2105;52.300;9.182;2024-03-25T15:48:23;11.30;1.00
4183;DHT22;2105;52.300;9.182;2024-03-25T15:50:49;11.30;1.00
4183;DHT22;2105;52.300;9.182;2024-03-25T15:53:15;11.30;1.00
4183;DHT22;2105;52.300;9.182;2024-03-25T15:55:41;11.40;1.00
4183;DHT22;2105;52.300;9.182;2024-03-25T15:58:07;11.40;1.00
4183;DHT22;2105;52.300;9.182;2024-03-25T16:00:32;11.30;1.00
4183;DHT22;2105;52.300;9.182;2024-03-25T16:02:58;11.40;1.00
4183;DHT22;2105;52.300;9.182;2024-03-25T16:05:25;11.40;1.00
4183;DHT22;2105;52.300;9.182;2024-03-25T16:07:51;11.30;1.00
4183;DHT22;2105;52.300;9.182;2024-03-25T16:10:22;11.20;1.00
4183;DHT22;2105;52.300;9.182;2024-03-25T16:12:48;11.20;1.00
4183;DHT22;2105;52.300;9.182;2024-03-25T16:15:14;11.20;1.00